aviador You're here:

CYPR Decoded Metar

PRINCE PUPERT in BC, CANADA
Report Time2017-08-18 00:00:00
UTC Time2017-08-18 01:04:59
Flight Rules mvfr MVFR
Wind160° at 13 Gusting to 19 kt
W.Decomp.*RWY 13: 12.9 kt HW 1.8 kt RCW
W.Rank160° ranks 7
Current wind is above 160° avg. (7.0)
Visibility9999 m
Phenomena:Light Rain
Clouds:Broken 013 Hf
Overcast 019 Hf
Expected CloudBase > 400 ft AGL from Temp-Dew spread
Ceiling1,300 ft
Temp14°C (ISA -1)
Dew Point13°C (94% RH)
AAT10.3°C
QNH1011 hPa
Density Alt289 ft
Elevation112 ft
Report Wrong Elevation
Raw Report
CYPR 180000Z AUTO 16013G19KT 9SM -RA BKN013 OVC019 14/13 A2985 RMK
SLP112=

Extra information for CYPR:More info

Metar Taf Metar & Taf Last 4 Metars F.Rules Stats Wind Profile Meteogram Temp Stats Airport Information Weather charts Add Link Nearby VenuesMetar ALERT Operation Metar Decoded Social comments